sensor_id;sensor_type;location;lat;lon;timestamp;temperature;humidity
38902;DHT22;24661;53.566;9.910;2023-06-22T00:02:24;17.50;99.90
38902;DHT22;24661;53.566;9.910;2023-06-22T00:04:50;17.50;99.90
38902;DHT22;24661;53.566;9.910;2023-06-22T00:07:16;17.50;99.90
38902;DHT22;24661;53.566;9.910;2023-06-22T00:09:41;17.40;99.90
38902;DHT22;24661;53.566;9.910;2023-06-22T00:12:07;17.40;99.90
38902;DHT22;24661;53.566;9.910;2023-06-22T00:14:33;17.40;99.90
38902;DHT22;24661;53.566;9.910;2023-06-22T00:16:58;17.40;99.90
38902;DHT22;24661;53.566;9.910;2023-06-22T00:19:24;17.40;99.90
38902;DHT22;24661;53.566;9.910;2023-06-22T00:21:50;17.40;99.90
38902;DHT22;24661;53.566;9.910;2023-06-22T00:24:21;17.40;99.90
38902;DHT22;24661;53.566;9.910;2023-06-22T00:26:50;17.40;99.90
38902;DHT22;24661;53.566;9.910;2023-06-22T00:29:16;17.40;99.90
38902;DHT22;24661;53.566;9.910;2023-06-22T00:31:42;17.30;99.90
38902;DHT22;24661;53.566;9.910;2023-06-22T00:34:08;17.30;99.90
38902;DHT22;24661;53.566;9.910;2023-06-22T00:36:34;17.40;99.90
38902;DHT22;24661;53.566;9.910;2023-06-22T00:39:00;17.40;99.90
38902;DHT22;24661;53.566;9.910;2023-06-22T00:41:25;17.40;99.90
38902;DHT22;24661;53.566;9.910;2023-06-22T00:43:54;17.40;99.90
38902;DHT22;24661;53.566;9.910;2023-06-22T00:46:21;17.50;99.90
38902;DHT22;24661;53.566;9.910;2023-06-22T00:48:48;17.50;99.90
38902;DHT22;24661;53.566;9.910;2023-06-22T00:51:14;17.50;99.90
38902;DHT22;24661;53.566;9.910;2023-06-22T00:53:39;17.50;99.90
38902;DHT22;24661;53.566;9.910;2023-06-22T00:56:06;17.50;99.90
38902;DHT22;24661;53.566;9.910;2023-06-22T00:58:35;17.50;99.90
38902;DHT22;24661;53.566;9.910;2023-06-22T01:01:01;17.60;99.90
38902;DHT22;24661;53.566;9.910;2023-06-22T01:03:27;17.50;99.90
38902;DHT22;24661;53.566;9.910;2023-06-22T01:05:59;17.60;99.90
38902;DHT22;24661;53.566;9.910;2023-06-22T01:08:35;17.50;99.90
38902;DHT22;24661;53.566;9.910;2023-06-22T01:13:57;17.50;99.90
38902;DHT22;24661;53.566;9.910;2023-06-22T01:16:30;17.50;99.90
38902;DHT22;24661;53.566;9.910;2023-06-22T01:19:14;17.50;99.90
38902;DHT22;24661;53.566;9.910;2023-06-22T01:21:44;17.60;99.90
38902;DHT22;24661;53.566;9.910;2023-06-22T01:24:30;17.60;99.90
38902;DHT22;24661;53.566;9.910;2023-06-22T01:29:56;17.50;99.90
38902;DHT22;24661;53.566;9.910;2023-06-22T01:32:28;17.50;99.90
38902;DHT22;24661;53.566;9.910;2023-06-22T01:34:54;17.50;99.90
38902;DHT22;24661;53.566;9.910;2023-06-22T01:37:19;17.50;99.90
38902;DHT22;24661;53.566;9.910;2023-06-22T01:39:46;17.40;99.90
38902;DHT22;24661;53.566;9.910;2023-06-22T01:42:12;17.40;99.90
38902;DHT22;24661;53.566;9.910;2023-06-22T01:44:37;17.40;99.90
38902;DHT22;24661;53.566;9.910;2023-06-22T01:47:03;17.40;99.90
38902;DHT22;24661;53.566;9.910;2023-06-22T01:49:30;17.40;99.90
38902;DHT22;24661;53.566;9.910;2023-06-22T01:51:55;17.40;99.90
38902;DHT22;24661;53.566;9.910;2023-06-22T01:54:21;17.40;99.90
38902;DHT22;24661;53.566;9.910;2023-06-22T01:56:47;17.30;99.90
38902;DHT22;24661;53.566;9.910;2023-06-22T01:59:24;17.30;99.90
38902;DHT22;24661;53.566;9.910;2023-06-22T02:01:57;17.30;99.90
38902;DHT22;24661;53.566;9.910;2023-06-22T02:04:56;17.30;99.90
38902;DHT22;24661;53.566;9.910;2023-06-22T02:07:23;18.60;99.90
38902;DHT22;24661;53.566;9.910;2023-06-22T02:09:55;17.30;99.90
38902;DHT22;24661;53.566;9.910;2023-06-22T02:12:23;17.30;99.90
38902;DHT22;24661;53.566;9.910;2023-06-22T02:14:51;17.30;99.90
38902;DHT22;24661;53.566;9.910;2023-06-22T02:17:18;17.30;99.90
38902;DHT22;24661;53.566;9.910;2023-06-22T02:19:43;17.30;99.90
38902;DHT22;24661;53.566;9.910;2023-06-22T02:22:09;17.30;99.90
38902;DHT22;24661;53.566;9.910;2023-06-22T02:24:35;17.20;99.90
38902;DHT22;24661;53.566;9.910;2023-06-22T02:27:02;17.20;99.90
38902;DHT22;24661;53.566;9.910;2023-06-22T02:29:28;17.20;99.90
38902;DHT22;24661;53.566;9.910;2023-06-22T02:31:54;17.10;99.90
38902;DHT22;24661;53.566;9.910;2023-06-22T02:34:21;17.10;99.90
38902;DHT22;24661;53.566;9.910;2023-06-22T02:36:48;17.00;99.90
38902;DHT22;24661;53.566;9.910;2023-06-22T02:39:22;17.00;99.90
38902;DHT22;24661;53.566;9.910;2023-06-22T02:41:51;17.00;99.90
38902;DHT22;24661;53.566;9.910;2023-06-22T02:44:17;17.00;99.90
38902;DHT22;24661;53.566;9.910;2023-06-22T02:46:44;17.00;99.90
38902;DHT22;24661;53.566;9.910;2023-06-22T02:49:10;17.00;99.90
38902;DHT22;24661;53.566;9.910;2023-06-22T02:51:39;17.00;99.90
38902;DHT22;24661;53.566;9.910;2023-06-22T02:54:05;16.90;99.90
38902;DHT22;24661;53.566;9.910;2023-06-22T02:56:31;17.00;99.90
38902;DHT22;24661;53.566;9.910;2023-06-22T02:58:57;17.00;99.90
38902;DHT22;24661;53.566;9.910;2023-06-22T03:01:29;16.90;99.90
38902;DHT22;24661;53.566;9.910;2023-06-22T03:03:58;16.90;99.90
38902;DHT22;24661;53.566;9.910;2023-06-22T03:06:24;16.90;99.90
38902;DHT22;24661;53.566;9.910;2023-06-22T03:09:04;16.90;99.90
38902;DHT22;24661;53.566;9.910;2023-06-22T03:11:31;16.80;99.90
38902;DHT22;24661;53.566;9.910;2023-06-22T03:13:57;16.80;99.90
38902;DHT22;24661;53.566;9.910;2023-06-22T03:16:22;16.80;99.90
38902;DHT22;24661;53.566;9.910;2023-06-22T03:18:48;16.80;99.90
38902;DHT22;24661;53.566;9.910;2023-06-22T03:21:14;16.90;99.90
38902;DHT22;24661;53.566;9.910;2023-06-22T03:23:41;16.80;99.90
38902;DHT22;24661;53.566;9.910;2023-06-22T03:26:08;16.80;99.90
38902;DHT22;24661;53.566;9.910;2023-06-22T03:28:33;16.80;99.90
38902;DHT22;24661;53.566;9.910;2023-06-22T03:30:59;16.80;99.90
38902;DHT22;24661;53.566;9.910;2023-06-22T03:33:24;16.80;99.90
38902;DHT22;24661;53.566;9.910;2023-06-22T03:35:50;16.90;99.90
38902;DHT22;24661;53.566;9.910;2023-06-22T03:38:16;16.90;99.90
38902;DHT22;24661;53.566;9.910;2023-06-22T03:40:42;16.90;99.90
38902;DHT22;24661;53.566;9.910;2023-06-22T03:43:08;16.90;99.90
38902;DHT22;24661;53.566;9.910;2023-06-22T03:45:33;16.90;99.90
38902;DHT22;24661;53.566;9.910;2023-06-22T03:47:59;16.90;99.90
38902;DHT22;24661;53.566;9.910;2023-06-22T03:50:25;17.00;99.90
38902;DHT22;24661;53.566;9.910;2023-06-22T03:52:51;17.00;99.90
38902;DHT22;24661;53.566;9.910;2023-06-22T03:55:19;17.00;99.90
38902;DHT22;24661;53.566;9.910;2023-06-22T03:57:45;17.20;99.90
38902;DHT22;24661;53.566;9.910;2023-06-22T04:00:11;17.10;99.90
38902;DHT22;24661;53.566;9.910;2023-06-22T04:02:37;17.20;99.90
38902;DHT22;24661;53.566;9.910;2023-06-22T04:05:02;17.20;99.90
38902;DHT22;24661;53.566;9.910;2023-06-22T04:07:28;17.30;99.90
38902;DHT22;24661;53.566;9.910;2023-06-22T04:09:54;17.30;99.90
38902;DHT22;24661;53.566;9.910;2023-06-22T04:12:20;17.40;99.90
38902;DHT22;24661;53.566;9.910;2023-06-22T04:14:45;17.40;99.90
38902;DHT22;24661;53.566;9.910;2023-06-22T04:17:11;17.50;99.90
38902;DHT22;24661;53.566;9.910;2023-06-22T04:19:39;17.50;99.90
38902;DHT22;24661;53.566;9.910;2023-06-22T04:22:05;17.50;99.90
38902;DHT22;24661;53.566;9.910;2023-06-22T04:24:32;17.60;99.90
38902;DHT22;24661;53.566;9.910;2023-06-22T04:26:58;17.60;99.90
38902;DHT22;24661;53.566;9.910;2023-06-22T04:29:29;17.60;99.90
38902;DHT22;24661;53.566;9.910;2023-06-22T04:31:56;17.70;99.90
38902;DHT22;24661;53.566;9.910;2023-06-22T04:34:24;17.70;99.90
38902;DHT22;24661;53.566;9.910;2023-06-22T04:36:53;17.90;99.90
38902;DHT22;24661;53.566;9.910;2023-06-22T04:39:18;17.90;99.90
38902;DHT22;24661;53.566;9.910;2023-06-22T04:41:44;17.90;99.90
38902;DHT22;24661;53.566;9.910;2023-06-22T04:44:10;17.60;99.90
38902;DHT22;24661;53.566;9.910;2023-06-22T04:46:37;18.00;99.90
38902;DHT22;24661;53.566;9.910;2023-06-22T04:49:09;18.10;99.90
38902;DHT22;24661;53.566;9.910;2023-06-22T04:51:42;18.20;99.90
38902;DHT22;24661;53.566;9.910;2023-06-22T04:54:09;18.20;99.90
38902;DHT22;24661;53.566;9.910;2023-06-22T04:56:37;18.30;99.90
38902;DHT22;24661;53.566;9.910;2023-06-22T04:59:03;18.40;99.90
38902;DHT22;24661;53.566;9.910;2023-06-22T05:01:29;18.40;99.90
38902;DHT22;24661;53.566;9.910;2023-06-22T05:03:56;18.40;99.90
38902;DHT22;24661;53.566;9.910;2023-06-22T05:06:23;18.50;99.90
38902;DHT22;24661;53.566;9.910;2023-06-22T05:08:52;18.60;99.90
38902;DHT22;24661;53.566;9.910;2023-06-22T05:11:19;18.70;99.90
38902;DHT22;24661;53.566;9.910;2023-06-22T05:13:44;18.80;99.90
38902;DHT22;24661;53.566;9.910;2023-06-22T05:16:10;18.80;99.90
38902;DHT22;24661;53.566;9.910;2023-06-22T05:18:35;18.90;99.90
38902;DHT22;24661;53.566;9.910;2023-06-22T05:21:02;19.00;99.90
38902;DHT22;24661;53.566;9.910;2023-06-22T05:23:28;19.00;99.90
38902;DHT22;24661;53.566;9.910;2023-06-22T05:25:54;19.10;99.90
38902;DHT22;24661;53.566;9.910;2023-06-22T05:28:22;19.20;99.90
38902;DHT22;24661;53.566;9.910;2023-06-22T05:30:49;19.20;99.90
38902;DHT22;24661;53.566;9.910;2023-06-22T05:33:15;19.30;99.90
38902;DHT22;24661;53.566;9.910;2023-06-22T05:35:40;19.40;99.90
38902;DHT22;24661;53.566;9.910;2023-06-22T05:38:07;19.50;99.90
38902;DHT22;24661;53.566;9.910;2023-06-22T05:40:33;19.60;99.90
38902;DHT22;24661;53.566;9.910;2023-06-22T05:42:58;19.60;99.90
38902;DHT22;24661;53.566;9.910;2023-06-22T05:45:26;19.70;99.90
38902;DHT22;24661;53.566;9.910;2023-06-22T05:47:51;19.70;99.90
38902;DHT22;24661;53.566;9.910;2023-06-22T05:50:17;19.70;99.90
38902;DHT22;24661;53.566;9.910;2023-06-22T05:52:42;19.80;99.90
38902;DHT22;24661;53.566;9.910;2023-06-22T05:55:08;19.90;99.90
38902;DHT22;24661;53.566;9.910;2023-06-22T05:57:34;19.90;99.90
38902;DHT22;24661;53.566;9.910;2023-06-22T05:59:59;20.00;99.90
38902;DHT22;24661;53.566;9.910;2023-06-22T06:02:25;20.10;99.90
38902;DHT22;24661;53.566;9.910;2023-06-22T06:04:50;20.20;99.90
38902;DHT22;24661;53.566;9.910;2023-06-22T06:07:18;20.30;99.90
38902;DHT22;24661;53.566;9.910;2023-06-22T06:09:43;20.40;99.90
38902;DHT22;24661;53.566;9.910;2023-06-22T06:12:09;20.40;99.90
38902;DHT22;24661;53.566;9.910;2023-06-22T06:14:34;20.50;99.90
38902;DHT22;24661;53.566;9.910;2023-06-22T06:17:00;20.60;99.90
38902;DHT22;24661;53.566;9.910;2023-06-22T06:19:25;20.80;99.90
38902;DHT22;24661;53.566;9.910;2023-06-22T06:21:51;20.70;99.90
38902;DHT22;24661;53.566;9.910;2023-06-22T06:24:17;20.80;99.90
38902;DHT22;24661;53.566;9.910;2023-06-22T06:26:42;20.90;99.90
38902;DHT22;24661;53.566;9.910;2023-06-22T06:29:08;21.00;99.90
38902;DHT22;24661;53.566;9.910;2023-06-22T06:31:33;21.30;99.90
38902;DHT22;24661;53.566;9.910;2023-06-22T06:33:59;21.20;99.90
38902;DHT22;24661;53.566;9.910;2023-06-22T06:36:25;21.20;99.90
38902;DHT22;24661;53.566;9.910;2023-06-22T06:38:50;21.20;99.90
38902;DHT22;24661;53.566;9.910;2023-06-22T06:41:16;21.10;99.90
38902;DHT22;24661;53.566;9.910;2023-06-22T06:43:42;21.10;99.90
38902;DHT22;24661;53.566;9.910;2023-06-22T06:46:08;21.00;99.90
38902;DHT22;24661;53.566;9.910;2023-06-22T06:48:34;21.00;99.90
38902;DHT22;24661;53.566;9.910;2023-06-22T06:51:00;21.00;99.90
38902;DHT22;24661;53.566;9.910;2023-06-22T06:53:25;21.00;99.90
38902;DHT22;24661;53.566;9.910;2023-06-22T06:55:51;21.00;99.90
38902;DHT22;24661;53.566;9.910;2023-06-22T06:58:16;20.90;99.90
38902;DHT22;24661;53.566;9.910;2023-06-22T07:00:42;20.90;99.90
38902;DHT22;24661;53.566;9.910;2023-06-22T07:03:09;20.90;99.90
38902;DHT22;24661;53.566;9.910;2023-06-22T07:05:34;21.70;99.90
38902;DHT22;24661;53.566;9.910;2023-06-22T07:08:01;21.00;99.90
38902;DHT22;24661;53.566;9.910;2023-06-22T07:10:27;21.00;99.90
38902;DHT22;24661;53.566;9.910;2023-06-22T07:12:53;21.00;99.90
38902;DHT22;24661;53.566;9.910;2023-06-22T07:15:18;21.10;99.90
38902;DHT22;24661;53.566;9.910;2023-06-22T07:17:44;21.20;99.90
38902;DHT22;24661;53.566;9.910;2023-06-22T07:20:10;21.30;99.90
38902;DHT22;24661;53.566;9.910;2023-06-22T07:22:41;21.40;99.90
38902;DHT22;24661;53.566;9.910;2023-06-22T07:25:08;21.50;99.90
38902;DHT22;24661;53.566;9.910;2023-06-22T07:27:56;21.60;99.90
38902;DHT22;24661;53.566;9.910;2023-06-22T07:30:22;21.70;99.90
38902;DHT22;24661;53.566;9.910;2023-06-22T07:32:47;21.80;99.90
38902;DHT22;24661;53.566;9.910;2023-06-22T07:35:13;21.90;99.90
38902;DHT22;24661;53.566;9.910;2023-06-22T07:37:38;22.10;99.90
38902;DHT22;24661;53.566;9.910;2023-06-22T07:40:04;22.30;99.90
38902;DHT22;24661;53.566;9.910;2023-06-22T07:42:32;22.40;99.90
38902;DHT22;24661;53.566;9.910;2023-06-22T07:45:00;22.50;99.90
38902;DHT22;24661;53.566;9.910;2023-06-22T07:47:27;22.70;99.90
38902;DHT22;24661;53.566;9.910;2023-06-22T07:49:54;22.80;99.90
38902;DHT22;24661;53.566;9.910;2023-06-22T07:52:21;22.90;99.90
38902;DHT22;24661;53.566;9.910;2023-06-22T07:54:47;22.30;99.90
38902;DHT22;24661;53.566;9.910;2023-06-22T07:57:12;23.10;99.90
38902;DHT22;24661;53.566;9.910;2023-06-22T07:59:38;23.10;99.90
38902;DHT22;24661;53.566;9.910;2023-06-22T08:02:04;23.20;99.90
38902;DHT22;24661;53.566;9.910;2023-06-22T08:04:30;23.20;99.90
38902;DHT22;24661;53.566;9.910;2023-06-22T08:06:57;23.20;99.90
38902;DHT22;24661;53.566;9.910;2023-06-22T08:09:23;23.10;99.90
38902;DHT22;24661;53.566;9.910;2023-06-22T08:11:48;23.10;99.90
38902;DHT22;24661;53.566;9.910;2023-06-22T08:14:14;23.10;99.90
38902;DHT22;24661;53.566;9.910;2023-06-22T08:16:41;23.30;99.90
38902;DHT22;24661;53.566;9.910;2023-06-22T08:19:07;23.50;99.90
38902;DHT22;24661;53.566;9.910;2023-06-22T08:21:32;23.40;99.90
38902;DHT22;24661;53.566;9.910;2023-06-22T08:23:58;23.40;99.90
38902;DHT22;24661;53.566;9.910;2023-06-22T08:26:24;23.50;99.90
38902;DHT22;24661;53.566;9.910;2023-06-22T08:28:49;23.50;99.90
38902;DHT22;24661;53.566;9.910;2023-06-22T08:31:15;23.50;99.90
38902;DHT22;24661;53.566;9.910;2023-06-22T08:33:41;23.60;99.90
38902;DHT22;24661;53.566;9.910;2023-06-22T08:36:08;23.60;99.90
38902;DHT22;24661;53.566;9.910;2023-06-22T08:38:36;23.70;99.90
38902;DHT22;24661;53.566;9.910;2023-06-22T08:41:01;23.70;99.90
38902;DHT22;24661;53.566;9.910;2023-06-22T08:43:28;23.70;99.90
38902;DHT22;24661;53.566;9.910;2023-06-22T08:45:53;23.60;99.90
38902;DHT22;24661;53.566;9.910;2023-06-22T08:48:19;23.50;99.90
38902;DHT22;24661;53.566;9.910;2023-06-22T08:50:44;23.50;99.90
38902;DHT22;24661;53.566;9.910;2023-06-22T08:53:10;23.70;99.90
38902;DHT22;24661;53.566;9.910;2023-06-22T08:55:35;23.80;99.90
38902;DHT22;24661;53.566;9.910;2023-06-22T08:58:01;23.80;99.90
38902;DHT22;24661;53.566;9.910;2023-06-22T09:00:27;23.90;99.90
38902;DHT22;24661;53.566;9.910;2023-06-22T09:02:54;24.00;99.90
38902;DHT22;24661;53.566;9.910;2023-06-22T09:05:24;24.00;99.90
38902;DHT22;24661;53.566;9.910;2023-06-22T09:07:51;24.10;99.90
38902;DHT22;24661;53.566;9.910;2023-06-22T09:10:17;24.10;99.90
38902;DHT22;24661;53.566;9.910;2023-06-22T09:12:42;24.20;99.90
38902;DHT22;24661;53.566;9.910;2023-06-22T09:15:08;24.30;99.90
38902;DHT22;24661;53.566;9.910;2023-06-22T09:17:34;24.40;99.90
38902;DHT22;24661;53.566;9.910;2023-06-22T09:20:01;24.50;99.90
38902;DHT22;24661;53.566;9.910;2023-06-22T09:22:28;24.50;99.90
38902;DHT22;24661;53.566;9.910;2023-06-22T09:24:55;24.50;99.90
38902;DHT22;24661;53.566;9.910;2023-06-22T09:27:21;24.50;99.90
38902;DHT22;24661;53.566;9.910;2023-06-22T09:29:47;24.60;99.90
38902;DHT22;24661;53.566;9.910;2023-06-22T09:32:13;24.60;99.90
38902;DHT22;24661;53.566;9.910;2023-06-22T09:34:38;24.80;99.90
38902;DHT22;24661;53.566;9.910;2023-06-22T09:37:04;24.80;99.90
38902;DHT22;24661;53.566;9.910;2023-06-22T09:39:30;24.90;99.90
38902;DHT22;24661;53.566;9.910;2023-06-22T09:41:58;25.00;99.90
38902;DHT22;24661;53.566;9.910;2023-06-22T09:44:25;25.10;99.90
38902;DHT22;24661;53.566;9.910;2023-06-22T09:46:51;25.10;99.90
38902;DHT22;24661;53.566;9.910;2023-06-22T09:49:17;25.10;99.90
38902;DHT22;24661;53.566;9.910;2023-06-22T09:51:42;25.20;99.90
38902;DHT22;24661;53.566;9.910;2023-06-22T09:54:08;25.20;99.90
38902;DHT22;24661;53.566;9.910;2023-06-22T09:56:33;25.20;99.90
38902;DHT22;24661;53.566;9.910;2023-06-22T09:58:59;25.30;99.90
38902;DHT22;24661;53.566;9.910;2023-06-22T10:01:24;25.50;99.90
38902;DHT22;24661;53.566;9.910;2023-06-22T10:03:52;25.50;99.90
38902;DHT22;24661;53.566;9.910;2023-06-22T10:06:20;25.50;99.90
38902;DHT22;24661;53.566;9.910;2023-06-22T10:08:45;25.50;99.90
38902;DHT22;24661;53.566;9.910;2023-06-22T10:11:12;25.60;99.90
38902;DHT22;24661;53.566;9.910;2023-06-22T10:13:37;25.50;99.90
38902;DHT22;24661;53.566;9.910;2023-06-22T10:16:03;25.60;99.90
38902;DHT22;24661;53.566;9.910;2023-06-22T10:18:29;25.70;99.90
38902;DHT22;24661;53.566;9.910;2023-06-22T10:20:56;25.90;99.90
38902;DHT22;24661;53.566;9.910;2023-06-22T10:23:22;26.00;99.90
38902;DHT22;24661;53.566;9.910;2023-06-22T10:25:47;26.10;99.90
38902;DHT22;24661;53.566;9.910;2023-06-22T10:28:13;26.10;99.90
38902;DHT22;24661;53.566;9.910;2023-06-22T10:30:40;26.20;99.90
38902;DHT22;24661;53.566;9.910;2023-06-22T10:33:09;26.30;99.90
38902;DHT22;24661;53.566;9.910;2023-06-22T10:35:35;26.50;99.90
38902;DHT22;24661;53.566;9.910;2023-06-22T10:38:03;26.60;99.90
38902;DHT22;24661;53.566;9.910;2023-06-22T10:40:28;26.70;99.90
38902;DHT22;24661;53.566;9.910;2023-06-22T10:42:54;26.80;99.90
38902;DHT22;24661;53.566;9.910;2023-06-22T10:45:20;26.80;99.90
38902;DHT22;24661;53.566;9.910;2023-06-22T10:47:45;26.90;99.90
38902;DHT22;24661;53.566;9.910;2023-06-22T10:50:11;26.90;99.90
38902;DHT22;24661;53.566;9.910;2023-06-22T10:52:37;27.00;99.90
38902;DHT22;24661;53.566;9.910;2023-06-22T10:55:03;27.00;99.90
38902;DHT22;24661;53.566;9.910;2023-06-22T10:57:29;27.00;99.90
38902;DHT22;24661;53.566;9.910;2023-06-22T10:59:54;27.00;99.90
38902;DHT22;24661;53.566;9.910;2023-06-22T11:02:20;27.00;99.90
38902;DHT22;24661;53.566;9.910;2023-06-22T11:04:45;27.10;99.90
38902;DHT22;24661;53.566;9.910;2023-06-22T11:07:13;27.00;99.90
38902;DHT22;24661;53.566;9.910;2023-06-22T11:09:38;27.20;99.90
38902;DHT22;24661;53.566;9.910;2023-06-22T11:12:05;27.40;99.90
38902;DHT22;24661;53.566;9.910;2023-06-22T11:14:31;27.40;99.90
38902;DHT22;24661;53.566;9.910;2023-06-22T11:16:59;27.60;99.90
38902;DHT22;24661;53.566;9.910;2023-06-22T11:19:24;27.90;99.90
38902;DHT22;24661;53.566;9.910;2023-06-22T11:21:50;28.10;99.90
38902;DHT22;24661;53.566;9.910;2023-06-22T11:24:16;28.10;99.90
38902;DHT22;24661;53.566;9.910;2023-06-22T11:26:42;28.10;99.90
38902;DHT22;24661;53.566;9.910;2023-06-22T11:29:07;28.00;99.90
38902;DHT22;24661;53.566;9.910;2023-06-22T11:31:34;27.80;99.90
38902;DHT22;24661;53.566;9.910;2023-06-22T11:34:00;27.90;99.90
38902;DHT22;24661;53.566;9.910;2023-06-22T11:36:26;27.90;99.90
38902;DHT22;24661;53.566;9.910;2023-06-22T11:38:52;28.00;99.90
38902;DHT22;24661;53.566;9.910;2023-06-22T11:41:18;28.10;99.90
38902;DHT22;24661;53.566;9.910;2023-06-22T11:43:44;28.10;99.90
38902;DHT22;24661;53.566;9.910;2023-06-22T11:46:10;28.10;99.90
38902;DHT22;24661;53.566;9.910;2023-06-22T11:48:36;28.10;99.90
38902;DHT22;24661;53.566;9.910;2023-06-22T11:51:01;28.30;99.90
38902;DHT22;24661;53.566;9.910;2023-06-22T11:53:28;28.40;99.90
38902;DHT22;24661;53.566;9.910;2023-06-22T11:55:54;28.50;99.90
38902;DHT22;24661;53.566;9.910;2023-06-22T11:58:21;28.50;99.90
38902;DHT22;24661;53.566;9.910;2023-06-22T12:00:46;28.40;99.90
38902;DHT22;24661;53.566;9.910;2023-06-22T12:03:12;28.40;99.90
38902;DHT22;24661;53.566;9.910;2023-06-22T12:05:38;28.50;99.90
38902;DHT22;24661;53.566;9.910;2023-06-22T12:08:04;28.40;99.90
38902;DHT22;24661;53.566;9.910;2023-06-22T12:10:30;27.10;99.90
38902;DHT22;24661;53.566;9.910;2023-06-22T12:12:55;28.40;99.90
38902;DHT22;24661;53.566;9.910;2023-06-22T12:15:23;28.30;99.90
38902;DHT22;24661;53.566;9.910;2023-06-22T12:17:49;28.30;99.90
38902;DHT22;24661;53.566;9.910;2023-06-22T12:20:14;28.30;99.90
38902;DHT22;24661;53.566;9.910;2023-06-22T12:22:41;28.10;99.90
38902;DHT22;24661;53.566;9.910;2023-06-22T12:25:10;28.10;99.90
38902;DHT22;24661;53.566;9.910;2023-06-22T12:27:36;28.00;99.90
38902;DHT22;24661;53.566;9.910;2023-06-22T12:30:02;27.90;99.90
38902;DHT22;24661;53.566;9.910;2023-06-22T12:32:28;28.00;99.90
38902;DHT22;24661;53.566;9.910;2023-06-22T12:34:55;28.10;99.90
38902;DHT22;24661;53.566;9.910;2023-06-22T12:37:21;28.20;99.90
38902;DHT22;24661;53.566;9.910;2023-06-22T12:39:46;28.10;99.90
38902;DHT22;24661;53.566;9.910;2023-06-22T12:42:12;28.00;99.90
38902;DHT22;24661;53.566;9.910;2023-06-22T12:44:38;28.00;99.90
38902;DHT22;24661;53.566;9.910;2023-06-22T12:47:05;28.30;99.90
38902;DHT22;24661;53.566;9.910;2023-06-22T12:49:31;28.30;99.90
38902;DHT22;24661;53.566;9.910;2023-06-22T12:51:56;28.50;99.90
38902;DHT22;24661;53.566;9.910;2023-06-22T12:54:22;28.50;99.90
38902;DHT22;24661;53.566;9.910;2023-06-22T12:56:49;28.40;99.90
38902;DHT22;24661;53.566;9.910;2023-06-22T12:59:15;28.20;99.90
38902;DHT22;24661;53.566;9.910;2023-06-22T13:01:42;28.20;99.90
38902;DHT22;24661;53.566;9.910;2023-06-22T13:04:09;28.10;99.90
38902;DHT22;24661;53.566;9.910;2023-06-22T13:06:36;28.20;99.90
38902;DHT22;24661;53.566;9.910;2023-06-22T13:09:02;28.30;99.90
38902;DHT22;24661;53.566;9.910;2023-06-22T13:11:30;28.30;99.90
38902;DHT22;24661;53.566;9.910;2023-06-22T13:13:56;28.40;99.90
38902;DHT22;24661;53.566;9.910;2023-06-22T13:16:21;28.00;99.90
38902;DHT22;24661;53.566;9.910;2023-06-22T13:18:47;27.90;99.90
38902;DHT22;24661;53.566;9.910;2023-06-22T13:21:12;27.70;99.90
38902;DHT22;24661;53.566;9.910;2023-06-22T13:23:39;27.70;99.90
38902;DHT22;24661;53.566;9.910;2023-06-22T13:26:05;27.50;99.90
38902;DHT22;24661;53.566;9.910;2023-06-22T13:28:30;27.50;99.90
38902;DHT22;24661;53.566;9.910;2023-06-22T13:30:56;27.60;99.90
38902;DHT22;24661;53.566;9.910;2023-06-22T13:33:21;27.60;99.90
38902;DHT22;24661;53.566;9.910;2023-06-22T13:35:47;27.70;99.90
38902;DHT22;24661;53.566;9.910;2023-06-22T13:38:13;27.70;99.90
38902;DHT22;24661;53.566;9.910;2023-06-22T13:40:38;27.70;99.90
38902;DHT22;24661;53.566;9.910;2023-06-22T13:43:04;27.70;99.90
38902;DHT22;24661;53.566;9.910;2023-06-22T13:45:30;27.70;99.90
38902;DHT22;24661;53.566;9.910;2023-06-22T13:47:56;27.80;99.90
38902;DHT22;24661;53.566;9.910;2023-06-22T13:50:22;27.90;99.90
38902;DHT22;24661;53.566;9.910;2023-06-22T13:52:47;28.10;99.90
38902;DHT22;24661;53.566;9.910;2023-06-22T13:55:13;28.20;99.90
38902;DHT22;24661;53.566;9.910;2023-06-22T13:57:40;28.00;99.90
38902;DHT22;24661;53.566;9.910;2023-06-22T14:00:06;28.20;99.90
38902;DHT22;24661;53.566;9.910;2023-06-22T14:02:33;28.30;99.90
38902;DHT22;24661;53.566;9.910;2023-06-22T14:04:59;28.50;99.90
38902;DHT22;24661;53.566;9.910;2023-06-22T14:07:24;28.60;99.90
38902;DHT22;24661;53.566;9.910;2023-06-22T14:09:50;28.80;99.90
38902;DHT22;24661;53.566;9.910;2023-06-22T14:12:16;28.80;99.90
38902;DHT22;24661;53.566;9.910;2023-06-22T14:14:43;28.60;99.90
38902;DHT22;24661;53.566;9.910;2023-06-22T14:17:09;28.50;99.90
38902;DHT22;24661;53.566;9.910;2023-06-22T14:19:36;28.30;99.90
38902;DHT22;24661;53.566;9.910;2023-06-22T14:22:02;28.20;99.90
38902;DHT22;24661;53.566;9.910;2023-06-22T14:24:28;28.00;99.90
38902;DHT22;24661;53.566;9.910;2023-06-22T14:26:57;27.90;99.90
38902;DHT22;24661;53.566;9.910;2023-06-22T14:29:23;27.80;99.90
38902;DHT22;24661;53.566;9.910;2023-06-22T14:31:49;27.70;99.90
38902;DHT22;24661;53.566;9.910;2023-06-22T14:34:15;27.80;99.90
38902;DHT22;24661;53.566;9.910;2023-06-22T14:36:41;27.60;99.90
38902;DHT22;24661;53.566;9.910;2023-06-22T14:39:08;27.40;99.90
38902;DHT22;24661;53.566;9.910;2023-06-22T14:41:33;27.40;99.90
38902;DHT22;24661;53.566;9.910;2023-06-22T14:43:59;27.10;99.90
38902;DHT22;24661;53.566;9.910;2023-06-22T14:46:24;27.00;99.90
38902;DHT22;24661;53.566;9.910;2023-06-22T14:48:50;26.90;99.90
38902;DHT22;24661;53.566;9.910;2023-06-22T14:51:16;26.80;99.90
38902;DHT22;24661;53.566;9.910;2023-06-22T14:53:46;26.70;99.90
38902;DHT22;24661;53.566;9.910;2023-06-22T14:56:12;26.70;99.90
38902;DHT22;24661;53.566;9.910;2023-06-22T14:58:40;27.40;99.90
38902;DHT22;24661;53.566;9.910;2023-06-22T15:01:06;26.50;99.90
38902;DHT22;24661;53.566;9.910;2023-06-22T15:03:34;26.50;99.90
38902;DHT22;24661;53.566;9.910;2023-06-22T15:06:02;26.40;99.90
38902;DHT22;24661;53.566;9.910;2023-06-22T15:08:28;26.30;99.90
38902;DHT22;24661;53.566;9.910;2023-06-22T15:10:54;26.40;99.90
38902;DHT22;24661;53.566;9.910;2023-06-22T15:13:20;26.30;99.90
38902;DHT22;24661;53.566;9.910;2023-06-22T15:15:47;26.30;99.90
38902;DHT22;24661;53.566;9.910;2023-06-22T15:18:14;26.10;99.90
38902;DHT22;24661;53.566;9.910;2023-06-22T15:20:40;26.00;99.90
38902;DHT22;24661;53.566;9.910;2023-06-22T15:23:07;25.90;99.90
38902;DHT22;24661;53.566;9.910;2023-06-22T15:25:34;25.70;99.90
38902;DHT22;24661;53.566;9.910;2023-06-22T15:27:59;25.80;99.90
38902;DHT22;24661;53.566;9.910;2023-06-22T15:30:25;25.80;99.90
38902;DHT22;24661;53.566;9.910;2023-06-22T15:32:51;25.80;99.90